Aeroboteco Virtual Airlines! Uma nuvem a frente.



 INFORMAÇÕES METEOROLÓGICAS
METAR FOR LFBO
ADDS - METARS form results

(1535 UTC 21 March 2019)
Data provider http://aviationweather.gov/metar/data/
 
METAR text: LFBO 211530Z AUTO 32007KT 290V360 CAVOK 16/00 Q1027 NOSIG
Conditions at: LFBO (TOULOUSE/BLAGNAC, FR) observed 1530 UTC 21 March 2019
Temperature: 16.0°C (61°F)
Dewpoint: 0.0°C (32°F) [RH = 34%]
Pressure (altimeter): 30.32 inches Hg (1027.0 mb)
Winds: from the NW (320 degrees) at 8 MPH (7 knots; 3.6 m/s)
Visibility: 6 or more miles (10+ km)
Ceiling: ceiling and visibility are OK
Clouds: unknown
Weather: no significant weather observed at this time

METAR text: LFBO 211500Z AUTO 35007KT 330V050 CAVOK 16/00 Q1027 NOSIG
Conditions at: LFBO (TOULOUSE/BLAGNAC, FR) observed 1500 UTC 21 March 2019
Temperature: 16.0°C (61°F)
Dewpoint: 0.0°C (32°F) [RH = 34%]
Pressure (altimeter): 30.32 inches Hg (1027.0 mb)
Winds: from the N (350 degrees) at 8 MPH (7 knots; 3.6 m/s)
Visibility: 6 or more miles (10+ km)
Ceiling: ceiling and visibility are OK
Clouds: unknown
Weather: no significant weather observed at this time

Forecast for: LFBO (TOULOUSE/BLAGNAC, FR)
Text: TAF LFBO 211100Z 2112/2218 VRB02KT CAVOK
Forecast period: 1200 UTC 21 March 2019 to 1800 UTC 22 March 2019
Forecast type: FROM: standard forecast or significant change
Winds: variable direction winds at 2 MPH (2 knots; 1.0 m/s)
Visibility: 6 or more miles 10+ km)
Ceiling: unknown
Clouds: missing
Weather: NSW  (no significant weather)
Text: TEMPO 2113/2118 36005KT
Forecast period: 1300 to 1800 UTC 21 March 2019
Forecast type: TEMPORARY: The following changes expected for less than half the time period
Winds: from the N (360 degrees) at 6 MPH (5 knots; 2.6 m/s)
Visibility: missing
Ceiling: unknown
Clouds: missing
Weather: no significant weather forecast for this period

 MAPA DO AEROPORTO

 INFORMAÇÕES DA PISTA
Pista 14L Tamanho da pista 9843 ft Largura da pista 148 ft
Elevação da pista 490 ft Ranhura da pista 0 ft Proa da pista 143
Pista 32R Tamanho da pista 9843 ft Largura da pista 148 ft
Elevação da pista 497 ft Ranhura da pista 0 ft Proa da pista 323
Pista 14R Tamanho da pista 11483 ft Largura da pista 148 ft
Elevação da pista 488 ft Ranhura da pista 0 ft Proa da pista 143
Pista 32L Tamanho da pista 11483 ft Largura da pista 148 ft
Elevação da pista 497 ft Ranhura da pista 0 ft Proa da pista 323

 FREQUÊNCIAS DO AEROPORTO
Tipo AFIS Nome TOULOUSE I Frequência 121.25 MHZ
Tipo APP Nome APP Frequência 121.1 MHZ
Tipo APP Nome TOULOUSE A Frequência 125.175 MHZ
Tipo ATIS Nome ATIS Frequência 123.125 MHZ
Tipo CLD Nome CLNC DEL Frequência 121.7 MHZ
Tipo GND Nome GND Frequência 121.9 MHZ
Tipo TWR Nome TWR Frequência 118.1 MHZ

 AUXÍLIOS DE NAVEGAÇÃO PRÓXIMOS AO AEROPORTO
Tipo NDB Nome Toulouse Frequência 415 KHZ
Tipo VOR-DME Nome Toulouse Frequência 117700 KHZ
Tipo NDB Nome Toulouse Frequência 423 KHZ
Tipo NDB Nome Toulouse Frequência 406 KHZ